Time;durP1;ratioP1;P1;durP2;ratioP2;P2;SDS_P1;SDS_P2;PMS_P1;PMS_P2;Temp;Humidity;BMP_temperature;BMP_pressure;BME280_temperature;BME280_humidity;BME280_pressure;Samples;Min_cycle;Max_cycle;Signal;HPM_P1;HPM_P2
2023/06/11 00:05:35;;;;;;;7.23;6.63;;;24.50;58.20;;;;;;4887412;29;20427;-83
2023/06/11 00:16:48;;;;;;;7.73;7.03;;;24.40;58.50;;;;;;4806518;29;20467;-85
2023/06/11 00:31:47;;;;;;;6.77;6.27;;;24.20;59.10;;;;;;4799103;29;20499;-83
2023/06/11 00:35:17;;;;;;;;;;;;;;;;;;;;;
2023/06/11 00:53:17;;;;;;;8.13;7.50;;;24.20;59.70;;;;;;4832183;29;20482;-83
2023/06/11 01:00:40;;;;;;;6.90;6.40;;;24.00;60.20;;;;;;4810271;29;20523;-83
2023/06/11 01:04:39;;;;;;;7.23;6.63;;;24.10;60.50;;;;;;4793629;29;20500;-82
2023/06/11 01:08:07;;;;;;;7.50;6.90;;;24.00;60.50;;;;;;4782636;29;21834;-83
2023/06/11 01:15:56;;;;;;;;;;;;;;;;;;;;;
2023/06/11 01:27:46;;;;;;;;;;;;;;;;;;;;;
2023/06/11 01:35:43;;;;;;;6.93;6.33;;;24.00;60.90;;;;;;4656929;30;20465;-84
2023/06/11 01:39:22;;;;;;;7.10;6.57;;;23.80;61.40;;;;;;4595341;31;20482;-82
2023/06/11 01:53:17;;;;;;;6.77;6.27;;;23.90;61.40;;;;;;4658861;30;20507;-84
2023/06/11 02:10:45;;;;;;;6.73;6.13;;;23.70;62.80;;;;;;4791534;29;20575;-84
2023/06/11 02:21:48;;;;;;;7.13;6.57;;;23.60;63.70;;;;;;4957561;23;20505;-85
2023/06/11 02:39:25;;;;;;;7.07;6.47;;;23.60;63.80;;;;;;4914388;29;20841;-84
2023/06/11 02:42:46;;;;;;;;;;;;;;;;;;;;;
2023/06/11 02:53:35;;;;;;;7.13;6.63;;;23.40;65.00;;;;;;4778924;30;20518;-83
2023/06/11 03:24:45;;;;;;;8.20;7.50;;;23.00;66.60;;;;;;4828602;29;20543;-83
2023/06/11 03:31:09;;;;;;;6.67;6.17;;;22.90;67.90;;;;;;4770806;29;20553;-85
2023/06/11 03:38:07;;;;;;;;;;;;;;;;;;;;;
2023/06/11 03:45:40;;;;;;;6.67;6.10;;;22.80;68.70;;;;;;4764067;30;20498;-82
2023/06/11 03:48:36;;;;;;;7.60;6.90;;;22.90;69.10;;;;;;4712680;30;20501;-83
2023/06/11 03:51:53;;;;;;;;;;;;;;;;;;;;;
2023/06/11 04:24:48;;;;;;;7.60;6.90;;;22.90;70.40;;;;;;4870208;29;20464;-83
2023/06/11 04:54:10;;;;;;;;;;;;;;;;;;;;;
2023/06/11 05:04:59;;;;;;;;;;;;;;;;;;;;;
2023/06/11 05:13:24;;;;;;;7.50;6.80;;;22.90;73.20;;;;;;4799361;29;20573;-85
2023/06/11 05:27:23;;;;;;;6.80;6.20;;;22.90;73.50;;;;;;4867162;29;20464;-81
2023/06/11 05:31:05;;;;;;;6.97;6.47;;;22.90;73.60;;;;;;4793255;29;20456;-84
2023/06/11 05:34:14;;;;;;;;;;;;;;;;;;;;;
2023/06/11 05:40:45;;;;;;;7.77;6.30;;;23.20;73.20;;;;;;4805419;29;20888;-81
2023/06/11 05:44:10;;;;;;;7.70;7.00;;;23.30;72.90;;;;;;4831600;29;20464;-85
2023/06/11 05:47:01;;;;;;;6.50;5.90;;;23.30;72.70;;;;;;4843744;29;20529;-84
2023/06/11 05:50:51;;;;;;;7.20;6.60;;;23.40;73.30;;;;;;4926379;29;20510;-84
2023/06/11 05:54:25;;;;;;;7.50;6.80;;;23.30;72.60;;;;;;4896492;29;20491;-83
2023/06/11 05:58:16;;;;;;;6.97;6.37;;;23.40;72.60;;;;;;4905384;29;20470;-84
2023/06/11 06:01:28;;;;;;;7.43;6.80;;;23.50;72.80;;;;;;4913392;29;20489;-83
2023/06/11 06:04:49;;;;;;;6.70;6.20;;;23.50;71.90;;;;;;4843595;29;20617;-83
2023/06/11 06:08:35;;;;;;;7.30;6.70;;;23.70;72.70;;;;;;4853200;29;20452;-83
2023/06/11 06:15:55;;;;;;;8.70;6.67;;;23.80;73.60;;;;;;4841653;29;20461;-83
2023/06/11 06:23:39;;;;;;;8.23;6.60;;;23.80;72.30;;;;;;4757473;30;20453;-84
2023/06/11 06:33:56;;;;;;;7.10;6.50;;;24.10;72.40;;;;;;5174866;23;20501;-83
2023/06/11 06:41:47;;;;;;;7.47;6.87;;;24.30;71.80;;;;;;4898953;29;20495;-82
2023/06/11 06:48:52;;;;;;;;;;;;;;;;;;;;;
2023/06/11 06:52:28;;;;;;;7.37;6.77;;;24.30;71.10;;;;;;4830012;29;22034;-84
2023/06/11 07:23:36;;;;;;;6.77;6.27;;;25.10;68.20;;;;;;4875569;29;20493;-83
2023/06/11 07:26:42;;;;;;;6.93;6.23;;;25.10;67.20;;;;;;4806617;29;20513;-84
2023/06/11 07:34:57;;;;;;;6.97;6.30;;;25.20;66.70;;;;;;4009265;27;20487;-84
2023/06/11 07:37:32;;;;;;;7.00;6.40;;;25.30;66.00;;;;;;4911427;29;20479;-84
2023/06/11 07:40:21;;;;;;;6.63;6.13;;;25.20;66.80;;;;;;4883253;29;20490;-83
2023/06/11 07:43:12;;;;;;;6.50;6.00;;;25.30;66.40;;;;;;4875957;29;20550;-83
2023/06/11 07:45:54;;;;;;;6.00;5.50;;;25.70;65.30;;;;;;4891388;29;20467;-82
2023/06/11 07:49:01;;;;;;;7.13;6.53;;;25.80;65.50;;;;;;4879382;29;20460;-83
2023/06/11 07:51:56;;;;;;;6.60;6.10;;;26.00;65.20;;;;;;4870899;29;20439;-81
2023/06/11 07:54:40;;;;;;;8.43;7.10;;;26.10;64.00;;;;;;4867534;29;20447;-84
2023/06/11 07:57:08;;;;;;;6.60;6.10;;;26.00;64.00;;;;;;4874720;29;20444;-82
2023/06/11 07:59:48;;;;;;;7.37;6.73;;;26.00;64.40;;;;;;4873255;29;20503;-81
2023/06/11 08:02:19;;;;;;;7.10;6.30;;;26.10;64.20;;;;;;4880893;29;20469;-84
2023/06/11 08:05:17;;;;;;;6.40;5.90;;;26.20;64.30;;;;;;4894201;29;20531;-84
2023/06/11 08:07:53;;;;;;;9.90;5.87;;;26.30;63.40;;;;;;4876897;29;20543;-82
2023/06/11 08:10:55;;;;;;;6.03;5.60;;;26.20;63.70;;;;;;4880678;29;20491;-82
2023/06/11 08:16:17;;;;;;;6.60;6.00;;;26.40;63.00;;;;;;5234300;23;21480;-83
2023/06/11 08:19:00;;;;;;;6.40;5.83;;;26.40;63.50;;;;;;4936569;29;20500;-82
2023/06/11 08:22:16;;;;;;;6.57;6.07;;;26.60;62.90;;;;;;4924775;29;20458;-84
2023/06/11 08:25:05;;;;;;;6.87;6.27;;;26.70;62.20;;;;;;4888488;29;20448;-82
2023/06/11 08:27:51;;;;;;;5.87;5.43;;;26.90;61.70;;;;;;4926433;29;20458;-85
2023/06/11 08:31:10;;;;;;;6.70;6.13;;;26.90;61.00;;;;;;4916544;29;20476;-85
2023/06/11 08:34:34;;;;;;;6.10;5.60;;;27.10;60.60;;;;;;4922773;29;20480;-84
2023/06/11 08:41:39;;;;;;;5.90;5.40;;;27.30;59.90;;;;;;4852760;29;20443;-83
2023/06/11 08:44:36;;;;;;;6.27;5.73;;;27.50;59.80;;;;;;4868943;29;20880;-83
2023/06/11 08:51:03;;;;;;;6.13;5.63;;;28.50;58.10;;;;;;4925397;28;20511;-83
2023/06/11 08:54:12;;;;;;;5.87;5.37;;;28.40;57.20;;;;;;4933283;28;20490;-82
2023/06/11 09:01:22;;;;;;;5.40;5.00;;;29.20;54.60;;;;;;4933411;28;20498;-84
2023/06/11 09:04:43;;;;;;;5.13;4.73;;;29.30;54.40;;;;;;4924971;29;20521;-84
2023/06/11 09:07:30;;;;;;;5.70;5.20;;;29.80;53.10;;;;;;4929410;29;20474;-84
2023/06/11 09:13:42;;;;;;;5.50;5.00;;;29.60;52.30;;;;;;4924604;29;20489;-81
2023/06/11 09:16:48;;;;;;;4.67;4.37;;;30.20;51.70;;;;;;4940470;28;20485;-83
2023/06/11 09:19:37;;;;;;;4.80;4.40;;;30.80;51.00;;;;;;4911465;29;20482;-82
2023/06/11 09:22:28;;;;;;;4.93;4.63;;;30.80;49.10;;;;;;4904603;29;20465;-84
2023/06/11 09:25:24;;;;;;;5.57;5.17;;;30.60;49.50;;;;;;4916712;29;20473;-84
2023/06/11 09:32:33;;;;;;;4.80;4.40;;;31.40;48.20;;;;;;4905022;29;20504;-84
2023/06/11 09:35:25;;;;;;;5.40;4.90;;;31.00;48.20;;;;;;4871354;29;20467;-83
2023/06/11 09:38:50;;;;;;;4.50;4.10;;;31.40;47.80;;;;;;4871726;29;20480;-84
2023/06/11 09:41:51;;;;;;;4.47;4.17;;;31.60;47.00;;;;;;4869430;29;20472;-80
2023/06/11 09:44:49;;;;;;;4.90;4.50;;;32.00;45.60;;;;;;4905580;29;20461;-83
2023/06/11 09:47:27;;;;;;;4.80;4.40;;;33.20;43.60;;;;;;4923470;28;20553;-82
2023/06/11 09:50:09;;;;;;;5.40;5.00;;;33.00;43.30;;;;;;4899851;29;20513;-83
2023/06/11 09:53:12;;;;;;;4.93;4.53;;;33.20;42.60;;;;;;4942436;28;20497;-82
2023/06/11 09:55:53;;;;;;;4.83;4.43;;;33.50;42.40;;;;;;4919055;29;20503;-81
2023/06/11 10:03:02;;;;;;;4.60;4.30;;;34.30;40.80;;;;;;4916399;29;20447;-84
2023/06/11 10:06:28;;;;;;;4.77;4.47;;;34.60;39.90;;;;;;4899120;29;20462;-83
2023/06/11 10:12:50;;;;;;;4.90;4.57;;;35.00;38.10;;;;;;4872038;29;20475;-82
2023/06/11 10:19:44;;;;;;;4.77;4.40;;;34.20;37.70;;;;;;4840304;29;20585;-85
2023/06/11 10:22:49;;;;;;;4.70;4.40;;;34.40;36.50;;;;;;4861486;29;20553;-85
2023/06/11 10:25:38;;;;;;;4.80;4.40;;;34.80;35.50;;;;;;4907533;29;20466;-86
2023/06/11 10:28:11;;;;;;;4.73;4.43;;;34.50;35.40;;;;;;4905987;29;20450;-83
2023/06/11 10:30:54;;;;;;;3.93;3.73;;;34.70;35.60;;;;;;4934274;23;20511;-85
2023/06/11 10:34:25;;;;;;;;;;;;;;;;;;;;;
2023/06/11 10:37:21;;;;;;;5.07;4.67;;;34.50;32.80;;;;;;4926219;29;20533;-83
2023/06/11 10:39:54;;;;;;;5.07;4.60;;;33.50;33.60;;;;;;4908601;29;20482;-82
2023/06/11 10:43:20;;;;;;;4.50;4.20;;;33.30;34.10;;;;;;4907896;29;20935;-83
2023/06/11 10:46:20;;;;;;;4.67;4.30;;;33.50;34.00;;;;;;4923248;29;20441;-84
2023/06/11 10:49:00;;;;;;;4.40;4.10;;;33.50;34.60;;;;;;4917448;29;20465;-83
2023/06/11 10:52:02;;;;;;;5.20;4.80;;;33.70;34.70;;;;;;4876757;29;20458;-85
2023/06/11 10:55:03;;;;;;;3.97;3.67;;;33.90;34.10;;;;;;4854646;29;20473;-85
2023/06/11 11:02:06;;;;;;;5.00;4.30;;;33.50;35.20;;;;;;4882503;23;20507;-84
2023/06/11 11:05:04;;;;;;;6.20;4.80;;;33.80;35.60;;;;;;4795295;29;20446;-84
2023/06/11 11:08:29;;;;;;;4.60;4.20;;;34.10;34.60;;;;;;4875729;29;20459;-86
2023/06/11 11:11:24;;;;;;;5.47;5.07;;;33.90;33.40;;;;;;4822542;29;20580;-84
2023/06/11 11:14:09;;;;;;;4.70;4.30;;;33.80;33.30;;;;;;4832106;29;20509;-84
2023/06/11 11:17:23;;;;;;;6.23;5.27;;;33.70;34.30;;;;;;4857601;29;20461;-83
2023/06/11 11:20:21;;;;;;;4.17;3.77;;;33.80;34.40;;;;;;4842984;29;20902;-84
2023/06/11 11:23:11;;;;;;;4.60;4.30;;;33.70;33.40;;;;;;4783493;29;20449;-83
2023/06/11 11:26:35;;;;;;;4.50;4.10;;;33.30;34.40;;;;;;4778168;29;21282;-84
2023/06/11 11:32:20;;;;;;;5.70;5.20;;;33.20;33.80;;;;;;967725;26;20751;-85
2023/06/11 11:35:14;;;;;;;4.90;4.50;;;33.10;35.10;;;;;;4915565;29;20473;-83
2023/06/11 11:38:01;;;;;;;5.40;5.00;;;33.10;36.10;;;;;;4913270;29;20508;-84
2023/06/11 11:40:53;;;;;;;4.37;4.07;;;;;;;;;;4956635;23;21350;-84
2023/06/11 11:44:01;;;;;;;4.73;4.30;;;;;;;;;;4909562;29;20477;-82
2023/06/11 11:46:37;;;;;;;9.43;4.80;;;33.70;53.30;;;;;;4873623;29;21499;-83
2023/06/11 11:52:47;;;;;;;4.77;4.37;;;33.80;55.10;;;;;;4891294;29;20465;-84
2023/06/11 11:58:53;;;;;;;4.70;4.40;;;33.80;52.50;;;;;;4914893;29;20454;-85
2023/06/11 12:02:02;;;;;;;5.33;4.83;;;33.60;53.60;;;;;;4837766;29;20465;-85
2023/06/11 12:05:44;;;;;;;5.10;4.67;;;34.40;53.40;;;;;;4838218;29;20444;-83
2023/06/11 12:08:50;;;;;;;4.87;4.40;;;33.90;53.70;;;;;;4917069;29;20538;-85
2023/06/11 12:12:17;;;;;;;4.67;4.37;;;34.10;54.30;;;;;;4921901;29;20452;-83
2023/06/11 12:15:30;;;;;;;5.00;4.60;;;33.80;53.60;;;;;;4915118;29;20448;-83
2023/06/11 12:21:23;;;;;;;5.07;4.57;;;33.80;53.40;;;;;;4920883;29;20528;-82
2023/06/11 12:24:09;;;;;;;4.43;4.13;;;34.60;55.20;;;;;;4913655;29;20489;-82
2023/06/11 12:27:41;;;;;;;4.67;4.27;;;34.30;54.90;;;;;;4893013;29;20473;-86
2023/06/11 12:30:43;;;;;;;4.80;4.30;;;33.40;52.20;;;;;;4844638;29;20468;-85
2023/06/11 12:33:54;;;;;;;5.83;5.17;;;33.80;55.70;;;;;;4882596;29;20494;-85
2023/06/11 12:36:54;;;;;;;5.13;4.83;;;34.60;55.40;;;;;;4848340;29;20513;-84
2023/06/11 12:39:37;;;;;;;5.20;4.80;;;33.90;56.00;;;;;;4833462;29;20495;-85
2023/06/11 12:42:28;;;;;;;5.17;4.77;;;34.10;54.00;;;;;;4830867;29;20466;-84
2023/06/11 12:46:02;;;;;;;;;;;;;;;;;;;;;
2023/06/11 12:49:07;;;;;;;5.30;4.90;;;34.00;55.80;;;;;;4850308;29;20453;-83
2023/06/11 12:52:28;;;;;;;4.60;4.30;;;33.70;53.10;;;;;;4826319;29;22363;-84
2023/06/11 12:56:15;;;;;;;4.67;4.27;;;32.90;53.00;;;;;;4808627;29;20492;-84
2023/06/11 12:59:38;;;;;;;5.60;5.20;;;34.10;53.40;;;;;;4813458;29;20539;-85
2023/06/11 13:06:35;;;;;;;5.27;4.93;;;34.00;53.80;;;;;;4853953;29;20420;-84
2023/06/11 13:10:02;;;;;;;;;;;;;;;;;;;;;
2023/06/11 13:13:21;;;;;;;4.90;4.50;;;33.20;54.40;;;;;;4886672;29;20473;-83
2023/06/11 13:27:52;;;;;;;5.20;4.80;;;33.30;56.00;;;;;;4773876;30;20521;-84
2023/06/11 13:41:51;;;;;;;5.90;5.40;;;32.20;57.70;;;;;;2371733;27;20494;-82
2023/06/11 13:52:23;;;;;;;;;;;;;;;;;;;;;
2023/06/11 13:55:43;;;;;;;5.53;5.10;;;32.00;56.70;;;;;;4863008;29;21275;-81
2023/06/11 13:59:01;;;;;;;5.10;4.60;;;32.50;58.90;;;;;;4849091;29;20460;-81
2023/06/11 14:02:11;;;;;;;5.80;5.27;;;32.70;57.90;;;;;;4881113;29;20470;-83
2023/06/11 14:12:52;;;;;;;6.83;6.23;;;32.90;57.50;;;;;;4926588;29;20441;-86
2023/06/11 14:25:51;;;;;;;;;;;;;;;;;;;;;
2023/06/11 14:28:44;;;;;;;;;;;;;;;;;;;;;
2023/06/11 14:32:49;;;;;;;6.47;5.87;;;32.40;57.20;;;;;;4848022;29;20451;-84
2023/06/11 14:36:13;;;;;;;6.13;5.50;;;32.30;57.80;;;;;;4774591;29;20512;-84
2023/06/11 14:42:56;;;;;;;6.10;5.47;;;31.90;57.80;;;;;;4824208;29;20474;-82
2023/06/11 14:46:04;;;;;;;6.93;6.40;;;31.80;58.70;;;;;;4820184;29;20482;-85
2023/06/11 14:49:37;;;;;;;6.07;5.63;;;31.40;58.20;;;;;;4837084;29;20507;-83
2023/06/11 14:53:01;;;;;;;6.53;5.93;;;31.40;58.70;;;;;;4770607;29;20579;-84
2023/06/11 14:55:53;;;;;;;9.10;7.13;;;31.40;58.60;;;;;;4828999;29;20476;-85
2023/06/11 15:01:33;;;;;;;6.60;6.10;;;31.20;59.50;;;;;;4921535;29;20558;-86
2023/06/11 15:04:11;;;;;;;6.40;5.80;;;31.80;59.80;;;;;;4905565;29;20471;-84
2023/06/11 15:07:07;;;;;;;;;;;;;;;;;;;;;
2023/06/11 15:14:14;;;;;;;6.20;5.60;;;32.00;59.50;;;;;;4881986;29;20725;-84
2023/06/11 15:17:46;;;;;;;5.50;5.00;;;31.60;58.40;;;;;;4887206;29;20502;-82
2023/06/11 15:21:46;;;;;;;;;;;;;;;;;;;;;
2023/06/11 15:24:58;;;;;;;5.50;5.07;;;31.90;58.10;;;;;;4883397;29;20498;-84
2023/06/11 15:27:52;;;;;;;5.90;5.40;;;32.00;58.00;;;;;;4887801;29;20583;-88
2023/06/11 15:31:44;;;;;;;;;;;;;;;;;;;;;
2023/06/11 15:35:14;;;;;;;6.57;6.00;;;31.60;57.90;;;;;;4885299;29;20517;-84
2023/06/11 15:38:22;;;;;;;5.87;5.37;;;30.90;58.30;;;;;;4875655;29;20454;-84
2023/06/11 15:41:57;;;;;;;;;;;;;;;;;;;;;
2023/06/11 15:48:42;;;;;;;6.30;5.57;;;32.20;59.50;;;;;;4824130;29;20574;-85
2023/06/11 15:51:26;;;;;;;6.33;5.73;;;31.40;58.80;;;;;;4820213;29;20471;-83
2023/06/11 15:54:49;;;;;;;5.50;5.00;;;31.80;59.60;;;;;;4840911;29;20810;-86
2023/06/11 16:01:54;;;;;;;6.23;5.70;;;;;;;;;;4785392;29;20479;-85
2023/06/11 16:04:53;;;;;;;6.10;5.60;;;31.40;59.70;;;;;;4792894;29;20526;-86
2023/06/11 16:07:40;;;;;;;6.33;5.83;;;31.40;59.40;;;;;;4780093;29;20461;-83
2023/06/11 16:17:36;;;;;;;;;;;;;;;;;;;;;
2023/06/11 16:20:32;;;;;;;6.13;5.63;;;31.50;58.30;;;;;;4826322;29;20491;-84
2023/06/11 16:23:44;;;;;;;6.80;6.20;;;31.50;58.60;;;;;;4900808;29;20466;-83
2023/06/11 16:26:32;;;;;;;5.90;5.43;;;32.00;59.90;;;;;;4879031;29;20471;-85
2023/06/11 16:29:21;;;;;;;6.20;5.70;;;31.00;59.60;;;;;;4893594;29;20501;-85
2023/06/11 16:32:17;;;;;;;6.40;5.90;;;31.40;59.70;;;;;;4892123;29;20472;-84
2023/06/11 16:35:01;;;;;;;6.00;5.50;;;31.40;60.90;;;;;;4892280;29;20482;-86
2023/06/11 16:37:34;;;;;;;5.80;5.30;;;31.80;61.90;;;;;;4893139;29;20459;-86
2023/06/11 16:43:23;;;;;;;6.43;5.93;;;31.30;60.30;;;;;;4905111;29;20444;-86
2023/06/11 16:46:25;;;;;;;6.00;5.50;;;31.10;60.30;;;;;;4908705;29;20479;-83
2023/06/11 16:49:58;;;;;;;6.30;5.80;;;31.50;60.30;;;;;;4907086;29;20452;-86
2023/06/11 16:52:47;;;;;;;5.37;4.87;;;31.50;60.90;;;;;;4899329;29;20561;-85
2023/06/11 16:55:20;;;;;;;6.27;5.67;;;30.70;59.60;;;;;;4902395;29;20560;-86
2023/06/11 16:58:06;;;;;;;5.60;5.20;;;31.10;60.20;;;;;;4874574;29;21081;-83
2023/06/11 17:01:18;;;;;;;5.80;5.40;;;31.20;59.90;;;;;;4894241;29;20499;-84
2023/06/11 17:04:01;;;;;;;5.33;4.93;;;30.80;60.30;;;;;;4877088;29;20467;-84
2023/06/11 17:06:35;;;;;;;6.07;5.57;;;31.30;60.40;;;;;;4880093;29;20569;-83
2023/06/11 17:12:45;;;;;;;5.80;5.30;;;31.60;61.30;;;;;;4836132;29;20464;-85
2023/06/11 17:16:03;;;;;;;6.70;6.20;;;31.10;60.70;;;;;;4850998;29;20522;-85
2023/06/11 17:22:56;;;;;;;6.00;5.40;;;30.80;60.80;;;;;;4873992;29;20458;-86
2023/06/11 17:25:38;;;;;;;5.67;5.27;;;31.00;62.20;;;;;;4884036;29;20930;-86
2023/06/11 17:28:29;;;;;;;5.47;4.97;;;31.00;62.20;;;;;;4861555;29;20460;-86
2023/06/11 17:31:17;;;;;;;5.40;5.07;;;30.80;61.10;;;;;;4858506;29;20492;-85
2023/06/11 17:33:50;;;;;;;6.30;5.80;;;30.70;61.70;;;;;;4873430;29;20484;-85
2023/06/11 17:36:24;;;;;;;6.27;5.70;;;30.70;61.70;;;;;;4857609;29;20459;-86
2023/06/11 17:44:00;;;;;;;5.30;4.90;;;30.70;63.20;;;;;;4871612;29;20461;-84
2023/06/11 17:47:11;;;;;;;6.33;5.50;;;30.60;63.00;;;;;;4840479;29;20456;-86
2023/06/11 17:50:07;;;;;;;5.40;5.00;;;30.80;63.20;;;;;;4830891;29;20668;-82
2023/06/11 17:53:08;;;;;;;5.77;5.37;;;30.60;64.50;;;;;;4826594;29;20662;-83
2023/06/11 17:56:10;;;;;;;5.67;5.10;;;30.70;63.70;;;;;;4833319;29;20478;-85
2023/06/11 17:58:51;;;;;;;7.33;4.97;;;30.70;63.80;;;;;;4819775;29;20513;-84
2023/06/11 18:01:50;;;;;;;5.20;4.70;;;;;;;;;;4808344;29;20908;-85
2023/06/11 18:05:01;;;;;;;5.33;4.67;;;;;;;;;;4814157;29;20457;-82
2023/06/11 18:08:22;;;;;;;5.10;4.60;;;30.50;63.20;;;;;;4818074;29;20514;-87
2023/06/11 18:14:50;;;;;;;4.97;4.57;;;30.30;63.10;;;;;;4737968;29;20490;-84
2023/06/11 18:17:46;;;;;;;5.13;4.50;;;;;;;;;;4775134;29;20496;-84
2023/06/11 18:21:04;;;;;;;4.97;4.53;;;30.30;62.60;;;;;;4766266;29;21186;-83
2023/06/11 18:24:10;;;;;;;4.50;4.13;;;;;;;;;;4821735;29;20479;-83
2023/06/11 18:27:03;;;;;;;5.33;4.70;;;;;;;;;;4799543;29;21156;-83
2023/06/11 18:30:21;;;;;;;5.00;4.60;;;;;;;;;;4802057;29;20520;-84
2023/06/11 18:36:28;;;;;;;6.47;4.00;;;;;;;;;;4800797;29;20510;-83
2023/06/11 18:39:27;;;;;;;5.30;4.90;;;;;;;;;;4850997;23;20559;-82
2023/06/11 18:49:08;;;;;;;5.50;5.00;;;;;;;;;;4858735;29;20507;-85
2023/06/11 18:52:31;;;;;;;4.47;4.17;;;;;;;;;;4799867;29;20464;-83
2023/06/11 18:59:04;;;;;;;4.50;4.20;;;;;;;;;;4898525;29;20459;-82
2023/06/11 19:02:04;;;;;;;4.70;4.40;;;;;;;;;;4910078;29;21041;-85
2023/06/11 19:05:41;;;;;;;;;;;;;;;;;;;;;
2023/06/11 19:08:23;;;;;;;;;;;;;;;;;;;;;
2023/06/11 19:11:04;;;;;;;5.30;4.80;;;;;;;;;;4888568;29;20490;-83
2023/06/11 19:17:09;;;;;;;4.60;4.20;;;;;;;;;;4902798;29;20462;-85
2023/06/11 19:19:50;;;;;;;4.83;4.43;;;;;;;;;;4894769;29;20478;-86
2023/06/11 19:26:15;;;;;;;4.43;4.13;;;;;;;;;;4907950;29;21248;-85
2023/06/11 19:32:34;;;;;;;4.27;3.87;;;;;;;;;;4865620;29;20451;-84
2023/06/11 19:39:11;;;;;;;6.37;5.73;;;;;;;;;;4867218;29;20466;-84
2023/06/11 19:42:05;;;;;;;4.53;3.93;;;;;;;;;;4835480;29;20477;-85
2023/06/11 19:45:20;;;;;;;5.20;4.70;;;;;;;;;;4835203;29;20570;-85
2023/06/11 19:47:55;;;;;;;5.37;4.87;;;;;;;;;;4820682;29;20480;-86
2023/06/11 19:54:27;;;;;;;;;;;;;;;;;;;;;
2023/06/11 19:57:33;;;;;;;4.90;4.40;;;;;;;;;;4791220;29;20478;-84
2023/06/11 20:04:31;;;;;;;4.97;4.57;;;;;;;;;;4748434;30;20473;-85
2023/06/11 20:33:10;;;;;;;5.07;4.67;;;;;;;;;;4897046;29;20689;-86
2023/06/11 20:36:32;;;;;;;5.30;4.90;;;;;;;;;;4813720;29;21473;-84
2023/06/11 20:42:39;;;;;;;5.67;5.17;;;;;;;;;;1058813;26;20940;-86
2023/06/11 20:56:14;;;;;;;5.90;5.10;;;;;;;;;;4762129;30;20585;-84
2023/06/11 20:59:26;;;;;;;;;;;;;;;;;;;;;
2023/06/11 21:02:46;;;;;;;5.23;4.73;;;;;;;;;;4746865;30;20513;-84
2023/06/11 21:06:10;;;;;;;5.83;4.90;;;;;;;;;;4674856;30;20881;-84
2023/06/11 21:10:02;;;;;;;;;;;;;;;;;;;;;
2023/06/11 21:13:18;;;;;;;5.97;4.37;;;;;;;;;;4796193;29;20485;-83
2023/06/11 21:20:34;;;;;;;;;;;;;;;;;;;;;
2023/06/11 21:27:26;;;;;;;4.97;4.57;;;;;;;;;;4704893;30;21082;-84
2023/06/11 21:30:57;;;;;;;;;;;;;;;;;;;;;
2023/06/11 21:34:31;;;;;;;4.80;4.40;;;;;;;;;;4660508;30;20547;-86
2023/06/11 21:40:57;;;;;;;4.90;4.50;;;;;;;;;;4667378;30;20499;-84
2023/06/11 21:44:14;;;;;;;5.90;4.83;;;;;;;;;;4672228;30;20506;-84
2023/06/11 21:47:23;;;;;;;4.63;4.23;;;;;;;;;;4655463;30;20490;-84
2023/06/11 21:50:15;;;;;;;4.80;4.30;;;;;;;;;;4667401;30;20482;-83
2023/06/11 21:53:21;;;;;;;5.10;4.60;;;;;;;;;;4777520;29;20469;-84
2023/06/11 22:14:56;;;;;;;4.73;4.33;;;;;;;;;;4885731;29;21581;-86
2023/06/11 22:21:55;;;;;;;5.33;4.93;;;;;;;;;;4912278;29;20447;-83
2023/06/11 22:28:51;;;;;;;4.50;4.10;;;;;;;;;;4894476;29;20530;-83
2023/06/11 22:32:20;;;;;;;4.93;4.10;;;;;;;;;;4904357;29;20599;-84
2023/06/11 22:35:30;;;;;;;4.60;4.20;;;;;;;;;;4866881;29;20456;-84
2023/06/11 22:38:44;;;;;;;5.07;4.57;;;25.30;71.60;;;;;;4859521;29;20463;-84
2023/06/11 22:42:12;;;;;;;4.50;4.10;;;;;;;;;;4899139;29;20458;-82
2023/06/11 22:45:50;;;;;;;4.70;4.30;;;;;;;;;;4895218;29;20529;-82
2023/06/11 22:48:41;;;;;;;5.07;4.30;;;;;;;;;;4906224;29;20773;-82
2023/06/11 22:51:44;;;;;;;4.30;4.00;;;;;;;;;;4847649;29;20483;-84
2023/06/11 22:55:23;;;;;;;4.40;4.00;;;;;;;;;;4917523;29;20453;-83
2023/06/11 22:59:17;;;;;;;4.80;4.40;;;24.80;71.40;;;;;;4787067;29;20494;-82
2023/06/11 23:43:58;;;;;;;;;;;;;;;;;;;;;
2023/06/11 23:58:20;;;;;;;;;;;;;;;;;;;;;
